sensor_id;sensor_type;location;lat;lon;timestamp;temperature;humidity
15574;DHT22;7888;46.748;8.102;2023-04-24T00:00:14;14.30;55.90
15574;DHT22;7888;46.748;8.102;2023-04-24T00:02:44;14.30;56.10
15574;DHT22;7888;46.748;8.102;2023-04-24T00:05:13;14.30;56.40
15574;DHT22;7888;46.748;8.102;2023-04-24T00:07:43;14.30;56.10
15574;DHT22;7888;46.748;8.102;2023-04-24T00:10:11;14.30;56.20
15574;DHT22;7888;46.748;8.102;2023-04-24T00:12:37;14.30;56.30
15574;DHT22;7888;46.748;8.102;2023-04-24T00:15:04;14.30;56.40
15574;DHT22;7888;46.748;8.102;2023-04-24T00:17:30;14.30;56.40
15574;DHT22;7888;46.748;8.102;2023-04-24T00:19:56;14.30;56.50
15574;DHT22;7888;46.748;8.102;2023-04-24T00:22:26;14.30;57.10
15574;DHT22;7888;46.748;8.102;2023-04-24T00:24:56;14.30;56.50
15574;DHT22;7888;46.748;8.102;2023-04-24T00:27:23;14.30;56.50
15574;DHT22;7888;46.748;8.102;2023-04-24T00:29:49;14.30;56.40
15574;DHT22;7888;46.748;8.102;2023-04-24T00:32:15;14.30;56.40
15574;DHT22;7888;46.748;8.102;2023-04-24T00:34:41;14.30;56.40
15574;DHT22;7888;46.748;8.102;2023-04-24T00:37:07;14.30;56.40
15574;DHT22;7888;46.748;8.102;2023-04-24T00:39:33;14.30;56.40
15574;DHT22;7888;46.748;8.102;2023-04-24T00:42:00;14.30;56.50
15574;DHT22;7888;46.748;8.102;2023-04-24T00:44:27;14.30;56.60
15574;DHT22;7888;46.748;8.102;2023-04-24T00:46:54;14.30;56.60
15574;DHT22;7888;46.748;8.102;2023-04-24T00:49:21;14.30;56.70
15574;DHT22;7888;46.748;8.102;2023-04-24T00:51:47;14.30;56.70
15574;DHT22;7888;46.748;8.102;2023-04-24T00:54:15;14.30;56.70
15574;DHT22;7888;46.748;8.102;2023-04-24T00:56:42;14.30;56.70
15574;DHT22;7888;46.748;8.102;2023-04-24T00:59:09;14.30;56.70
15574;DHT22;7888;46.748;8.102;2023-04-24T01:01:35;14.30;56.60
15574;DHT22;7888;46.748;8.102;2023-04-24T01:04:02;14.30;56.60
15574;DHT22;7888;46.748;8.102;2023-04-24T01:06:29;14.30;56.70
15574;DHT22;7888;46.748;8.102;2023-04-24T01:08:57;14.30;56.70
15574;DHT22;7888;46.748;8.102;2023-04-24T01:11:25;14.30;56.50
15574;DHT22;7888;46.748;8.102;2023-04-24T01:13:51;14.30;56.40
15574;DHT22;7888;46.748;8.102;2023-04-24T01:16:18;14.30;56.30
15574;DHT22;7888;46.748;8.102;2023-04-24T01:18:46;14.40;56.10
15574;DHT22;7888;46.748;8.102;2023-04-24T01:21:14;14.40;55.80
15574;DHT22;7888;46.748;8.102;2023-04-24T01:23:43;14.30;55.70
15574;DHT22;7888;46.748;8.102;2023-04-24T01:26:10;14.40;55.50
15574;DHT22;7888;46.748;8.102;2023-04-24T01:28:36;14.30;55.40
15574;DHT22;7888;46.748;8.102;2023-04-24T01:31:02;14.30;55.30
15574;DHT22;7888;46.748;8.102;2023-04-24T01:33:28;14.30;55.20
15574;DHT22;7888;46.748;8.102;2023-04-24T01:35:55;14.30;55.20
15574;DHT22;7888;46.748;8.102;2023-04-24T01:38:21;14.30;55.00
15574;DHT22;7888;46.748;8.102;2023-04-24T01:40:47;14.30;55.00
15574;DHT22;7888;46.748;8.102;2023-04-24T01:43:13;14.40;54.90
15574;DHT22;7888;46.748;8.102;2023-04-24T01:45:39;14.30;54.80
15574;DHT22;7888;46.748;8.102;2023-04-24T01:48:05;14.30;54.80
15574;DHT22;7888;46.748;8.102;2023-04-24T01:50:31;14.30;54.70
15574;DHT22;7888;46.748;8.102;2023-04-24T01:52:57;14.30;54.70
15574;DHT22;7888;46.748;8.102;2023-04-24T01:55:23;14.30;54.90
15574;DHT22;7888;46.748;8.102;2023-04-24T01:57:49;14.30;54.90
15574;DHT22;7888;46.748;8.102;2023-04-24T02:00:17;14.20;54.90
15574;DHT22;7888;46.748;8.102;2023-04-24T02:02:43;14.20;54.80
15574;DHT22;7888;46.748;8.102;2023-04-24T02:05:10;14.20;54.80
15574;DHT22;7888;46.748;8.102;2023-04-24T02:07:36;14.10;54.70
15574;DHT22;7888;46.748;8.102;2023-04-24T02:10:03;14.10;54.60
15574;DHT22;7888;46.748;8.102;2023-04-24T02:12:30;14.10;54.70
15574;DHT22;7888;46.748;8.102;2023-04-24T02:14:56;14.10;54.70
15574;DHT22;7888;46.748;8.102;2023-04-24T02:17:21;14.00;54.80
15574;DHT22;7888;46.748;8.102;2023-04-24T02:19:48;14.00;55.00
15574;DHT22;7888;46.748;8.102;2023-04-24T02:22:14;14.00;55.10
15574;DHT22;7888;46.748;8.102;2023-04-24T02:24:39;13.90;55.10
15574;DHT22;7888;46.748;8.102;2023-04-24T02:27:05;13.90;55.20
15574;DHT22;7888;46.748;8.102;2023-04-24T02:29:32;13.90;55.30
15574;DHT22;7888;46.748;8.102;2023-04-24T02:31:58;13.90;55.30
15574;DHT22;7888;46.748;8.102;2023-04-24T02:34:24;13.80;55.20
15574;DHT22;7888;46.748;8.102;2023-04-24T02:36:50;13.80;55.30
15574;DHT22;7888;46.748;8.102;2023-04-24T02:39:16;13.80;55.40
15574;DHT22;7888;46.748;8.102;2023-04-24T02:41:43;13.80;55.40
15574;DHT22;7888;46.748;8.102;2023-04-24T02:44:09;13.80;55.50
15574;DHT22;7888;46.748;8.102;2023-04-24T02:46:35;13.70;55.40
15574;DHT22;7888;46.748;8.102;2023-04-24T02:49:01;13.70;55.50
15574;DHT22;7888;46.748;8.102;2023-04-24T02:51:26;13.70;55.60
15574;DHT22;7888;46.748;8.102;2023-04-24T02:53:52;13.70;55.60
15574;DHT22;7888;46.748;8.102;2023-04-24T02:56:18;13.70;55.70
15574;DHT22;7888;46.748;8.102;2023-04-24T02:58:44;13.60;55.70
15574;DHT22;7888;46.748;8.102;2023-04-24T03:01:10;13.60;56.10
15574;DHT22;7888;46.748;8.102;2023-04-24T03:03:37;13.60;55.70
15574;DHT22;7888;46.748;8.102;2023-04-24T03:06:04;13.60;55.80
15574;DHT22;7888;46.748;8.102;2023-04-24T03:08:32;13.60;55.80
15574;DHT22;7888;46.748;8.102;2023-04-24T03:10:58;13.50;55.80
15574;DHT22;7888;46.748;8.102;2023-04-24T03:13:23;13.50;55.90
15574;DHT22;7888;46.748;8.102;2023-04-24T03:15:49;13.50;55.90
15574;DHT22;7888;46.748;8.102;2023-04-24T03:18:15;13.50;55.80
15574;DHT22;7888;46.748;8.102;2023-04-24T03:20:41;13.40;55.80
15574;DHT22;7888;46.748;8.102;2023-04-24T03:23:07;13.40;55.80
15574;DHT22;7888;46.748;8.102;2023-04-24T03:25:32;13.40;55.90
15574;DHT22;7888;46.748;8.102;2023-04-24T03:27:58;13.40;56.00
15574;DHT22;7888;46.748;8.102;2023-04-24T03:30:24;13.40;56.00
15574;DHT22;7888;46.748;8.102;2023-04-24T03:32:50;13.40;56.00
15574;DHT22;7888;46.748;8.102;2023-04-24T03:35:16;13.40;56.00
15574;DHT22;7888;46.748;8.102;2023-04-24T03:37:41;13.30;55.80
15574;DHT22;7888;46.748;8.102;2023-04-24T03:40:08;13.30;55.80
15574;DHT22;7888;46.748;8.102;2023-04-24T03:42:34;13.30;55.90
15574;DHT22;7888;46.748;8.102;2023-04-24T03:45:00;13.30;56.00
15574;DHT22;7888;46.748;8.102;2023-04-24T03:47:26;13.30;56.00
15574;DHT22;7888;46.748;8.102;2023-04-24T03:49:51;13.20;56.10
15574;DHT22;7888;46.748;8.102;2023-04-24T03:52:17;13.20;56.10
15574;DHT22;7888;46.748;8.102;2023-04-24T03:54:43;13.20;56.20
15574;DHT22;7888;46.748;8.102;2023-04-24T03:57:09;13.20;56.30
15574;DHT22;7888;46.748;8.102;2023-04-24T03:59:35;13.20;56.30
15574;DHT22;7888;46.748;8.102;2023-04-24T04:02:01;13.20;56.30
15574;DHT22;7888;46.748;8.102;2023-04-24T04:04:26;13.20;56.40
15574;DHT22;7888;46.748;8.102;2023-04-24T04:06:52;13.20;56.50
15574;DHT22;7888;46.748;8.102;2023-04-24T04:09:18;13.10;56.50
15574;DHT22;7888;46.748;8.102;2023-04-24T04:11:44;13.10;56.60
15574;DHT22;7888;46.748;8.102;2023-04-24T04:14:10;13.10;56.80
15574;DHT22;7888;46.748;8.102;2023-04-24T04:16:36;13.10;56.90
15574;DHT22;7888;46.748;8.102;2023-04-24T04:19:02;13.20;56.90
15574;DHT22;7888;46.748;8.102;2023-04-24T04:21:29;13.10;56.90
15574;DHT22;7888;46.748;8.102;2023-04-24T04:23:56;13.20;57.00
15574;DHT22;7888;46.748;8.102;2023-04-24T04:26:22;13.20;57.00
15574;DHT22;7888;46.748;8.102;2023-04-24T04:28:51;13.20;56.90
15574;DHT22;7888;46.748;8.102;2023-04-24T04:31:19;13.20;56.90
15574;DHT22;7888;46.748;8.102;2023-04-24T04:33:46;13.20;56.80
15574;DHT22;7888;46.748;8.102;2023-04-24T04:36:12;13.20;56.80
15574;DHT22;7888;46.748;8.102;2023-04-24T04:38:38;13.20;56.80
15574;DHT22;7888;46.748;8.102;2023-04-24T04:41:05;13.20;56.80
15574;DHT22;7888;46.748;8.102;2023-04-24T04:43:32;13.20;56.80
15574;DHT22;7888;46.748;8.102;2023-04-24T04:45:59;13.20;56.80
15574;DHT22;7888;46.748;8.102;2023-04-24T04:48:27;13.20;56.80
15574;DHT22;7888;46.748;8.102;2023-04-24T04:50:52;13.20;56.80
15574;DHT22;7888;46.748;8.102;2023-04-24T04:53:18;13.20;57.00
15574;DHT22;7888;46.748;8.102;2023-04-24T04:55:44;13.20;57.10
15574;DHT22;7888;46.748;8.102;2023-04-24T04:58:11;13.20;57.10
15574;DHT22;7888;46.748;8.102;2023-04-24T05:00:37;13.20;57.20
15574;DHT22;7888;46.748;8.102;2023-04-24T05:03:03;13.20;57.20
15574;DHT22;7888;46.748;8.102;2023-04-24T05:05:29;13.20;57.30
15574;DHT22;7888;46.748;8.102;2023-04-24T05:07:55;13.20;57.30
15574;DHT22;7888;46.748;8.102;2023-04-24T05:10:21;13.20;57.40
15574;DHT22;7888;46.748;8.102;2023-04-24T05:12:46;13.20;57.40
15574;DHT22;7888;46.748;8.102;2023-04-24T05:15:12;13.30;57.40
15574;DHT22;7888;46.748;8.102;2023-04-24T05:17:38;13.30;57.30
15574;DHT22;7888;46.748;8.102;2023-04-24T05:20:06;13.20;57.30
15574;DHT22;7888;46.748;8.102;2023-04-24T05:22:32;13.20;57.10
15574;DHT22;7888;46.748;8.102;2023-04-24T05:24:58;13.20;57.00
15574;DHT22;7888;46.748;8.102;2023-04-24T05:27:24;13.20;57.00
15574;DHT22;7888;46.748;8.102;2023-04-24T05:29:50;13.20;57.10
15574;DHT22;7888;46.748;8.102;2023-04-24T05:32:16;13.20;57.30
15574;DHT22;7888;46.748;8.102;2023-04-24T05:34:42;13.20;57.40
15574;DHT22;7888;46.748;8.102;2023-04-24T05:37:08;13.20;57.50
15574;DHT22;7888;46.748;8.102;2023-04-24T05:39:35;13.20;57.50
15574;DHT22;7888;46.748;8.102;2023-04-24T05:42:02;13.20;57.50
15574;DHT22;7888;46.748;8.102;2023-04-24T05:44:30;13.20;57.40
15574;DHT22;7888;46.748;8.102;2023-04-24T05:46:56;13.20;57.40
15574;DHT22;7888;46.748;8.102;2023-04-24T05:49:22;13.30;57.50
15574;DHT22;7888;46.748;8.102;2023-04-24T05:51:48;13.30;57.40
15574;DHT22;7888;46.748;8.102;2023-04-24T05:54:14;13.30;57.40
15574;DHT22;7888;46.748;8.102;2023-04-24T05:56:40;13.30;57.40
15574;DHT22;7888;46.748;8.102;2023-04-24T05:59:06;13.20;57.30
15574;DHT22;7888;46.748;8.102;2023-04-24T06:01:36;13.20;57.30
15574;DHT22;7888;46.748;8.102;2023-04-24T06:04:03;13.20;57.40
15574;DHT22;7888;46.748;8.102;2023-04-24T06:06:29;13.20;57.20
15574;DHT22;7888;46.748;8.102;2023-04-24T06:08:55;13.20;57.00
15574;DHT22;7888;46.748;8.102;2023-04-24T06:11:22;13.20;57.00
15574;DHT22;7888;46.748;8.102;2023-04-24T06:13:48;13.20;56.90
15574;DHT22;7888;46.748;8.102;2023-04-24T06:16:14;13.20;56.90
15574;DHT22;7888;46.748;8.102;2023-04-24T06:18:40;13.30;57.00
15574;DHT22;7888;46.748;8.102;2023-04-24T06:21:06;13.20;57.10
15574;DHT22;7888;46.748;8.102;2023-04-24T06:23:31;13.20;57.00
15574;DHT22;7888;46.748;8.102;2023-04-24T06:25:58;13.30;56.80
15574;DHT22;7888;46.748;8.102;2023-04-24T06:28:25;13.30;56.80
15574;DHT22;7888;46.748;8.102;2023-04-24T06:30:51;13.30;56.90
15574;DHT22;7888;46.748;8.102;2023-04-24T06:33:17;13.30;56.90
15574;DHT22;7888;46.748;8.102;2023-04-24T06:35:44;13.30;57.10
15574;DHT22;7888;46.748;8.102;2023-04-24T06:38:10;13.30;57.20
15574;DHT22;7888;46.748;8.102;2023-04-24T06:40:37;13.30;57.20
15574;DHT22;7888;46.748;8.102;2023-04-24T06:43:03;13.30;57.50
15574;DHT22;7888;46.748;8.102;2023-04-24T06:45:30;13.30;57.90
15574;DHT22;7888;46.748;8.102;2023-04-24T06:47:56;13.30;57.40
15574;DHT22;7888;46.748;8.102;2023-04-24T06:50:22;13.40;57.80
15574;DHT22;7888;46.748;8.102;2023-04-24T06:52:50;13.30;57.70
15574;DHT22;7888;46.748;8.102;2023-04-24T06:55:16;13.40;57.70
15574;DHT22;7888;46.748;8.102;2023-04-24T06:57:43;13.40;57.80
15574;DHT22;7888;46.748;8.102;2023-04-24T07:00:10;13.40;57.80
15574;DHT22;7888;46.748;8.102;2023-04-24T07:02:37;13.50;57.80
15574;DHT22;7888;46.748;8.102;2023-04-24T07:05:04;13.50;57.80
15574;DHT22;7888;46.748;8.102;2023-04-24T07:07:31;13.50;57.60
15574;DHT22;7888;46.748;8.102;2023-04-24T07:09:57;13.60;57.60
15574;DHT22;7888;46.748;8.102;2023-04-24T07:12:23;13.60;57.80
15574;DHT22;7888;46.748;8.102;2023-04-24T07:14:50;13.60;58.00
15574;DHT22;7888;46.748;8.102;2023-04-24T07:17:17;13.70;57.90
15574;DHT22;7888;46.748;8.102;2023-04-24T07:19:43;13.70;57.90
15574;DHT22;7888;46.748;8.102;2023-04-24T07:22:09;13.80;57.90
15574;DHT22;7888;46.748;8.102;2023-04-24T07:24:45;13.90;57.70
15574;DHT22;7888;46.748;8.102;2023-04-24T07:27:11;13.90;57.50
15574;DHT22;7888;46.748;8.102;2023-04-24T07:29:37;13.90;57.40
15574;DHT22;7888;46.748;8.102;2023-04-24T07:32:04;13.90;57.30
15574;DHT22;7888;46.748;8.102;2023-04-24T07:34:30;13.90;57.30
15574;DHT22;7888;46.748;8.102;2023-04-24T07:36:56;13.90;57.10
15574;DHT22;7888;46.748;8.102;2023-04-24T07:39:23;14.00;57.10
15574;DHT22;7888;46.748;8.102;2023-04-24T07:41:50;14.00;57.10
15574;DHT22;7888;46.748;8.102;2023-04-24T07:44:16;13.90;57.00
15574;DHT22;7888;46.748;8.102;2023-04-24T07:46:42;14.00;57.00
15574;DHT22;7888;46.748;8.102;2023-04-24T07:49:08;14.00;56.90
15574;DHT22;7888;46.748;8.102;2023-04-24T07:51:35;14.00;57.50
15574;DHT22;7888;46.748;8.102;2023-04-24T07:54:04;13.90;56.80
15574;DHT22;7888;46.748;8.102;2023-04-24T07:56:34;13.90;56.90
15574;DHT22;7888;46.748;8.102;2023-04-24T07:59:04;13.90;56.80
15574;DHT22;7888;46.748;8.102;2023-04-24T08:01:31;13.90;56.70
15574;DHT22;7888;46.748;8.102;2023-04-24T08:03:57;13.90;56.60
15574;DHT22;7888;46.748;8.102;2023-04-24T08:06:23;13.90;56.80
15574;DHT22;7888;46.748;8.102;2023-04-24T08:08:51;13.90;56.80
15574;DHT22;7888;46.748;8.102;2023-04-24T08:11:17;13.90;56.90
15574;DHT22;7888;46.748;8.102;2023-04-24T08:13:43;13.90;57.00
15574;DHT22;7888;46.748;8.102;2023-04-24T08:16:10;14.00;57.10
15574;DHT22;7888;46.748;8.102;2023-04-24T08:18:36;14.00;57.10
15574;DHT22;7888;46.748;8.102;2023-04-24T08:21:02;14.00;57.00
15574;DHT22;7888;46.748;8.102;2023-04-24T08:23:29;14.10;57.00
15574;DHT22;7888;46.748;8.102;2023-04-24T08:25:55;14.10;56.80
15574;DHT22;7888;46.748;8.102;2023-04-24T08:28:22;14.20;56.70
15574;DHT22;7888;46.748;8.102;2023-04-24T08:30:49;14.20;56.80
15574;DHT22;7888;46.748;8.102;2023-04-24T08:33:21;14.20;56.60
15574;DHT22;7888;46.748;8.102;2023-04-24T08:35:48;14.20;56.40
15574;DHT22;7888;46.748;8.102;2023-04-24T08:38:15;14.20;56.20
15574;DHT22;7888;46.748;8.102;2023-04-24T08:40:42;14.30;56.10
15574;DHT22;7888;46.748;8.102;2023-04-24T08:43:09;14.30;56.10
15574;DHT22;7888;46.748;8.102;2023-04-24T08:45:36;14.30;56.00
15574;DHT22;7888;46.748;8.102;2023-04-24T08:48:02;14.30;56.00
15574;DHT22;7888;46.748;8.102;2023-04-24T08:50:30;14.30;56.10
15574;DHT22;7888;46.748;8.102;2023-04-24T08:52:57;14.40;56.10
15574;DHT22;7888;46.748;8.102;2023-04-24T08:55:24;14.40;56.00
15574;DHT22;7888;46.748;8.102;2023-04-24T08:57:52;14.50;56.00
15574;DHT22;7888;46.748;8.102;2023-04-24T09:00:20;14.50;56.00
15574;DHT22;7888;46.748;8.102;2023-04-24T09:02:48;14.50;55.90
15574;DHT22;7888;46.748;8.102;2023-04-24T09:05:17;14.60;55.70
15574;DHT22;7888;46.748;8.102;2023-04-24T09:07:51;14.70;55.50
15574;DHT22;7888;46.748;8.102;2023-04-24T09:10:21;14.70;55.40
15574;DHT22;7888;46.748;8.102;2023-04-24T09:12:48;14.70;55.40
15574;DHT22;7888;46.748;8.102;2023-04-24T09:15:16;14.80;55.20
15574;DHT22;7888;46.748;8.102;2023-04-24T09:17:43;14.70;54.90
15574;DHT22;7888;46.748;8.102;2023-04-24T09:20:10;14.80;54.90
15574;DHT22;7888;46.748;8.102;2023-04-24T09:22:36;14.80;54.90
15574;DHT22;7888;46.748;8.102;2023-04-24T09:25:07;14.80;54.70
15574;DHT22;7888;46.748;8.102;2023-04-24T09:27:34;14.80;54.50
15574;DHT22;7888;46.748;8.102;2023-04-24T09:30:01;14.80;54.60
15574;DHT22;7888;46.748;8.102;2023-04-24T09:32:28;14.80;54.40
15574;DHT22;7888;46.748;8.102;2023-04-24T09:35:13;14.80;54.50
15574;DHT22;7888;46.748;8.102;2023-04-24T09:37:45;14.80;54.20
15574;DHT22;7888;46.748;8.102;2023-04-24T09:40:17;14.90;54.20
15574;DHT22;7888;46.748;8.102;2023-04-24T09:42:56;14.90;54.20
15574;DHT22;7888;46.748;8.102;2023-04-24T09:45:28;14.90;54.10
15574;DHT22;7888;46.748;8.102;2023-04-24T09:48:01;15.00;54.20
15574;DHT22;7888;46.748;8.102;2023-04-24T09:50:30;15.10;54.40
15574;DHT22;7888;46.748;8.102;2023-04-24T09:53:02;15.20;54.30
15574;DHT22;7888;46.748;8.102;2023-04-24T09:55:30;15.20;54.10
15574;DHT22;7888;46.748;8.102;2023-04-24T09:57:58;15.40;54.10
15574;DHT22;7888;46.748;8.102;2023-04-24T10:00:30;15.40;53.80
15574;DHT22;7888;46.748;8.102;2023-04-24T10:03:02;15.50;53.40
15574;DHT22;7888;46.748;8.102;2023-04-24T10:05:31;15.60;53.50
15574;DHT22;7888;46.748;8.102;2023-04-24T10:08:04;15.80;53.70
15574;DHT22;7888;46.748;8.102;2023-04-24T10:10:44;16.00;53.90
15574;DHT22;7888;46.748;8.102;2023-04-24T10:13:12;16.10;53.30
15574;DHT22;7888;46.748;8.102;2023-04-24T10:15:41;16.30;53.20
15574;DHT22;7888;46.748;8.102;2023-04-24T10:18:08;16.40;52.90
15574;DHT22;7888;46.748;8.102;2023-04-24T10:20:36;16.60;52.70
15574;DHT22;7888;46.748;8.102;2023-04-24T10:23:04;16.60;52.10
15574;DHT22;7888;46.748;8.102;2023-04-24T10:25:33;16.70;51.80
15574;DHT22;7888;46.748;8.102;2023-04-24T10:28:01;16.80;51.30
15574;DHT22;7888;46.748;8.102;2023-04-24T10:30:30;16.90;51.30
15574;DHT22;7888;46.748;8.102;2023-04-24T10:33:01;16.90;51.00
15574;DHT22;7888;46.748;8.102;2023-04-24T10:35:42;17.00;50.90
15574;DHT22;7888;46.748;8.102;2023-04-24T10:38:16;17.00;50.50
15574;DHT22;7888;46.748;8.102;2023-04-24T10:40:50;17.10;50.20
15574;DHT22;7888;46.748;8.102;2023-04-24T10:43:17;17.10;50.50
15574;DHT22;7888;46.748;8.102;2023-04-24T10:46:04;17.10;50.70
15574;DHT22;7888;46.748;8.102;2023-04-24T10:48:31;17.10;50.80
15574;DHT22;7888;46.748;8.102;2023-04-24T10:50:58;17.20;51.00
15574;DHT22;7888;46.748;8.102;2023-04-24T10:53:27;17.20;51.00
15574;DHT22;7888;46.748;8.102;2023-04-24T10:58:51;17.40;51.20
15574;DHT22;7888;46.748;8.102;2023-04-24T11:01:33;17.40;51.00
15574;DHT22;7888;46.748;8.102;2023-04-24T11:04:03;17.50;50.30
15574;DHT22;7888;46.748;8.102;2023-04-24T11:06:34;17.60;50.60
15574;DHT22;7888;46.748;8.102;2023-04-24T11:09:06;17.60;50.60
15574;DHT22;7888;46.748;8.102;2023-04-24T11:11:35;17.60;50.10
15574;DHT22;7888;46.748;8.102;2023-04-24T11:14:07;17.70;50.20
15574;DHT22;7888;46.748;8.102;2023-04-24T11:16:53;17.60;49.90
15574;DHT22;7888;46.748;8.102;2023-04-24T11:19:24;17.70;49.90
15574;DHT22;7888;46.748;8.102;2023-04-24T11:22:00;17.70;49.80
15574;DHT22;7888;46.748;8.102;2023-04-24T11:24:50;17.70;49.40
15574;DHT22;7888;46.748;8.102;2023-04-24T11:27:20;17.70;49.30
15574;DHT22;7888;46.748;8.102;2023-04-24T11:29:48;17.70;50.20
15574;DHT22;7888;46.748;8.102;2023-04-24T11:35:21;17.80;50.60
15574;DHT22;7888;46.748;8.102;2023-04-24T11:37:53;17.90;50.00
15574;DHT22;7888;46.748;8.102;2023-04-24T11:40:21;17.90;50.30
15574;DHT22;7888;46.748;8.102;2023-04-24T11:42:52;17.80;50.20
15574;DHT22;7888;46.748;8.102;2023-04-24T11:45:27;17.80;50.20
15574;DHT22;7888;46.748;8.102;2023-04-24T11:47:55;17.90;50.20
15574;DHT22;7888;46.748;8.102;2023-04-24T11:50:24;18.00;50.60
15574;DHT22;7888;46.748;8.102;2023-04-24T11:52:53;18.10;50.40
15574;DHT22;7888;46.748;8.102;2023-04-24T11:57:46;18.40;50.00
15574;DHT22;7888;46.748;8.102;2023-04-24T12:00:19;18.60;49.90
15574;DHT22;7888;46.748;8.102;2023-04-24T12:02:47;18.80;49.50
15574;DHT22;7888;46.748;8.102;2023-04-24T12:05:25;19.00;49.30
15574;DHT22;7888;46.748;8.102;2023-04-24T12:07:52;19.20;48.30
15574;DHT22;7888;46.748;8.102;2023-04-24T12:10:23;19.40;48.70
15574;DHT22;7888;46.748;8.102;2023-04-24T12:12:51;19.60;48.00
15574;DHT22;7888;46.748;8.102;2023-04-24T12:15:19;19.70;47.90
15574;DHT22;7888;46.748;8.102;2023-04-24T12:17:46;19.90;47.20
15574;DHT22;7888;46.748;8.102;2023-04-24T12:20:13;20.10;47.40
15574;DHT22;7888;46.748;8.102;2023-04-24T12:22:44;20.20;47.10
15574;DHT22;7888;46.748;8.102;2023-04-24T12:25:14;20.30;46.60
15574;DHT22;7888;46.748;8.102;2023-04-24T12:27:41;20.50;46.90
15574;DHT22;7888;46.748;8.102;2023-04-24T12:30:14;20.70;46.50
15574;DHT22;7888;46.748;8.102;2023-04-24T12:32:46;20.80;45.60
15574;DHT22;7888;46.748;8.102;2023-04-24T12:35:18;21.00;44.70
15574;DHT22;7888;46.748;8.102;2023-04-24T12:37:46;21.00;45.00
15574;DHT22;7888;46.748;8.102;2023-04-24T12:40:13;21.10;44.80
15574;DHT22;7888;46.748;8.102;2023-04-24T12:42:50;21.20;44.20
15574;DHT22;7888;46.748;8.102;2023-04-24T12:45:18;21.30;42.90
15574;DHT22;7888;46.748;8.102;2023-04-24T12:47:45;21.30;43.60
15574;DHT22;7888;46.748;8.102;2023-04-24T12:50:14;21.30;43.50
15574;DHT22;7888;46.748;8.102;2023-04-24T12:52:42;21.40;43.10
15574;DHT22;7888;46.748;8.102;2023-04-24T12:55:09;21.40;43.00
15574;DHT22;7888;46.748;8.102;2023-04-24T12:57:36;21.50;43.00
15574;DHT22;7888;46.748;8.102;2023-04-24T13:00:06;21.50;42.80
15574;DHT22;7888;46.748;8.102;2023-04-24T13:02:34;21.60;42.30
15574;DHT22;7888;46.748;8.102;2023-04-24T13:05:01;21.70;42.10
15574;DHT22;7888;46.748;8.102;2023-04-24T13:07:28;21.70;41.80
15574;DHT22;7888;46.748;8.102;2023-04-24T13:09:55;21.70;41.70
15574;DHT22;7888;46.748;8.102;2023-04-24T13:12:23;21.70;41.50
15574;DHT22;7888;46.748;8.102;2023-04-24T13:14:49;21.60;41.50
15574;DHT22;7888;46.748;8.102;2023-04-24T13:17:16;21.60;41.30
15574;DHT22;7888;46.748;8.102;2023-04-24T13:19:43;21.60;40.90
15574;DHT22;7888;46.748;8.102;2023-04-24T13:22:11;21.50;41.00
15574;DHT22;7888;46.748;8.102;2023-04-24T13:24:38;21.50;40.80
15574;DHT22;7888;46.748;8.102;2023-04-24T13:27:06;21.50;40.60
15574;DHT22;7888;46.748;8.102;2023-04-24T13:29:33;21.40;40.80
15574;DHT22;7888;46.748;8.102;2023-04-24T13:31:59;21.40;41.00
15574;DHT22;7888;46.748;8.102;2023-04-24T13:34:26;21.40;41.20
15574;DHT22;7888;46.748;8.102;2023-04-24T13:36:54;21.50;41.10
15574;DHT22;7888;46.748;8.102;2023-04-24T13:39:22;21.50;40.70
15574;DHT22;7888;46.748;8.102;2023-04-24T13:41:48;21.50;40.80
15574;DHT22;7888;46.748;8.102;2023-04-24T13:44:16;21.60;40.60
15574;DHT22;7888;46.748;8.102;2023-04-24T13:46:44;21.60;40.60
15574;DHT22;7888;46.748;8.102;2023-04-24T13:49:15;21.70;41.10
15574;DHT22;7888;46.748;8.102;2023-04-24T14:53:52;22.20;38.30
15574;DHT22;7888;46.748;8.102;2023-04-24T14:56:18;22.30;39.30
15574;DHT22;7888;46.748;8.102;2023-04-24T14:58:44;22.20;38.70
15574;DHT22;7888;46.748;8.102;2023-04-24T15:01:10;22.20;38.40
15574;DHT22;7888;46.748;8.102;2023-04-24T15:03:36;22.20;38.30
15574;DHT22;7888;46.748;8.102;2023-04-24T15:06:02;22.10;38.10
15574;DHT22;7888;46.748;8.102;2023-04-24T15:08:28;22.10;38.10
15574;DHT22;7888;46.748;8.102;2023-04-24T15:10:54;22.10;38.40
15574;DHT22;7888;46.748;8.102;2023-04-24T15:13:20;22.20;38.50
15574;DHT22;7888;46.748;8.102;2023-04-24T15:15:46;22.20;38.20
15574;DHT22;7888;46.748;8.102;2023-04-24T15:18:13;22.20;37.70
15574;DHT22;7888;46.748;8.102;2023-04-24T15:20:39;22.20;37.70
15574;DHT22;7888;46.748;8.102;2023-04-24T15:23:08;22.20;37.60
15574;DHT22;7888;46.748;8.102;2023-04-24T15:25:35;22.20;37.20
15574;DHT22;7888;46.748;8.102;2023-04-24T15:28:02;22.20;37.30
15574;DHT22;7888;46.748;8.102;2023-04-24T15:30:30;22.20;37.20
15574;DHT22;7888;46.748;8.102;2023-04-24T15:32:56;22.20;37.10
15574;DHT22;7888;46.748;8.102;2023-04-24T15:35:22;22.20;37.10
15574;DHT22;7888;46.748;8.102;2023-04-24T15:37:48;22.10;37.00
15574;DHT22;7888;46.748;8.102;2023-04-24T15:40:14;22.10;36.80
15574;DHT22;7888;46.748;8.102;2023-04-24T15:42:42;22.10;36.70
15574;DHT22;7888;46.748;8.102;2023-04-24T15:45:09;22.00;36.50
15574;DHT22;7888;46.748;8.102;2023-04-24T15:47:35;21.90;36.40
15574;DHT22;7888;46.748;8.102;2023-04-24T15:50:03;21.80;36.60
15574;DHT22;7888;46.748;8.102;2023-04-24T15:52:29;21.70;36.40
15574;DHT22;7888;46.748;8.102;2023-04-24T15:54:55;21.60;36.50
15574;DHT22;7888;46.748;8.102;2023-04-24T15:57:21;21.50;36.70
15574;DHT22;7888;46.748;8.102;2023-04-24T15:59:47;21.50;36.70
15574;DHT22;7888;46.748;8.102;2023-04-24T16:02:14;21.40;36.50
15574;DHT22;7888;46.748;8.102;2023-04-24T16:04:45;21.30;36.70
15574;DHT22;7888;46.748;8.102;2023-04-24T16:07:13;21.20;36.90
15574;DHT22;7888;46.748;8.102;2023-04-24T16:09:40;21.20;37.10
15574;DHT22;7888;46.748;8.102;2023-04-24T16:12:08;21.10;37.30
15574;DHT22;7888;46.748;8.102;2023-04-24T16:14:37;21.10;36.80
15574;DHT22;7888;46.748;8.102;2023-04-24T16:17:04;21.00;36.80
15574;DHT22;7888;46.748;8.102;2023-04-24T16:19:30;20.90;36.60
15574;DHT22;7888;46.748;8.102;2023-04-24T16:21:58;20.90;36.90
15574;DHT22;7888;46.748;8.102;2023-04-24T16:24:24;20.80;36.80
15574;DHT22;7888;46.748;8.102;2023-04-24T16:26:51;20.80;36.90
15574;DHT22;7888;46.748;8.102;2023-04-24T16:29:18;20.70;36.90
15574;DHT22;7888;46.748;8.102;2023-04-24T16:31:44;20.60;36.60
15574;DHT22;7888;46.748;8.102;2023-04-24T16:34:10;20.50;36.40
15574;DHT22;7888;46.748;8.102;2023-04-24T16:36:36;20.40;36.40
15574;DHT22;7888;46.748;8.102;2023-04-24T16:39:02;20.40;36.40
15574;DHT22;7888;46.748;8.102;2023-04-24T16:41:30;20.30;36.80
15574;DHT22;7888;46.748;8.102;2023-04-24T16:43:56;20.20;37.00
15574;DHT22;7888;46.748;8.102;2023-04-24T16:46:22;20.10;37.10
15574;DHT22;7888;46.748;8.102;2023-04-24T16:48:47;20.10;37.00
15574;DHT22;7888;46.748;8.102;2023-04-24T16:51:13;20.10;37.10
15574;DHT22;7888;46.748;8.102;2023-04-24T16:53:39;20.00;36.90
15574;DHT22;7888;46.748;8.102;2023-04-24T16:56:05;20.00;36.60